sensor_id;sensor_type;location;lat;lon;timestamp;P1;durP1;ratioP1;P2;durP2;ratioP2
146;SDS011;45999;48.808;9.182;2023-04-01T00:00:31;0.93;;;0.60;;
146;SDS011;45999;48.808;9.182;2023-04-01T00:02:58;0.93;;;0.50;;
146;SDS011;45999;48.808;9.182;2023-04-01T00:05:25;1.43;;;0.67;;
146;SDS011;45999;48.808;9.182;2023-04-01T00:07:51;0.47;;;0.40;;
146;SDS011;45999;48.808;9.182;2023-04-01T00:10:18;1.33;;;0.50;;
146;SDS011;45999;48.808;9.182;2023-04-01T00:12:44;1.17;;;0.60;;
146;SDS011;45999;48.808;9.182;2023-04-01T00:15:11;1.70;;;0.80;;
146;SDS011;45999;48.808;9.182;2023-04-01T00:17:37;1.90;;;0.80;;
146;SDS011;45999;48.808;9.182;2023-04-01T00:20:05;1.40;;;0.63;;
146;SDS011;45999;48.808;9.182;2023-04-01T00:22:33;1.83;;;0.80;;
146;SDS011;45999;48.808;9.182;2023-04-01T00:24:59;3.63;;;0.60;;
146;SDS011;45999;48.808;9.182;2023-04-01T00:27:26;2.13;;;0.80;;
146;SDS011;45999;48.808;9.182;2023-04-01T00:29:52;1.53;;;0.57;;
146;SDS011;45999;48.808;9.182;2023-04-01T00:32:18;1.70;;;0.60;;
146;SDS011;45999;48.808;9.182;2023-04-01T00:34:45;1.37;;;0.60;;
146;SDS011;45999;48.808;9.182;2023-04-01T00:37:11;1.53;;;0.80;;
146;SDS011;45999;48.808;9.182;2023-04-01T00:39:38;2.13;;;0.80;;
146;SDS011;45999;48.808;9.182;2023-04-01T00:42:05;1.07;;;0.70;;
146;SDS011;45999;48.808;9.182;2023-04-01T00:44:33;1.77;;;0.70;;
146;SDS011;45999;48.808;9.182;2023-04-01T00:47:00;2.87;;;0.77;;
146;SDS011;45999;48.808;9.182;2023-04-01T00:49:28;1.83;;;0.87;;
146;SDS011;45999;48.808;9.182;2023-04-01T00:51:58;2.57;;;0.67;;
146;SDS011;45999;48.808;9.182;2023-04-01T00:54:26;1.43;;;0.57;;
146;SDS011;45999;48.808;9.182;2023-04-01T00:57:02;0.93;;;0.50;;
146;SDS011;45999;48.808;9.182;2023-04-01T00:59:34;3.27;;;0.93;;
146;SDS011;45999;48.808;9.182;2023-04-01T01:02:04;3.17;;;0.70;;
146;SDS011;45999;48.808;9.182;2023-04-01T01:04:33;1.53;;;0.83;;
146;SDS011;45999;48.808;9.182;2023-04-01T01:12:31;3.57;;;0.90;;
146;SDS011;45999;48.808;9.182;2023-04-01T01:18:18;1.37;;;1.03;;
146;SDS011;45999;48.808;9.182;2023-04-01T01:23:49;2.30;;;1.13;;
146;SDS011;45999;48.808;9.182;2023-04-01T01:26:54;3.03;;;1.00;;
146;SDS011;45999;48.808;9.182;2023-04-01T01:29:34;2.83;;;0.60;;
146;SDS011;45999;48.808;9.182;2023-04-01T01:32:18;1.87;;;1.20;;
146;SDS011;45999;48.808;9.182;2023-04-01T01:37:18;2.20;;;1.00;;
146;SDS011;45999;48.808;9.182;2023-04-01T01:39:51;1.30;;;0.77;;
146;SDS011;45999;48.808;9.182;2023-04-01T01:42:22;1.87;;;0.73;;
146;SDS011;45999;48.808;9.182;2023-04-01T01:44:52;3.67;;;0.80;;
146;SDS011;45999;48.808;9.182;2023-04-01T01:47:22;2.00;;;0.90;;
146;SDS011;45999;48.808;9.182;2023-04-01T01:49:50;1.77;;;0.90;;
146;SDS011;45999;48.808;9.182;2023-04-01T01:52:18;3.07;;;0.70;;
146;SDS011;45999;48.808;9.182;2023-04-01T01:54:52;3.20;;;0.80;;
146;SDS011;45999;48.808;9.182;2023-04-01T01:57:23;2.97;;;0.93;;
146;SDS011;45999;48.808;9.182;2023-04-01T01:59:57;1.93;;;0.70;;
146;SDS011;45999;48.808;9.182;2023-04-01T02:02:28;1.90;;;0.60;;
146;SDS011;45999;48.808;9.182;2023-04-01T02:04:56;4.03;;;0.80;;
146;SDS011;45999;48.808;9.182;2023-04-01T02:07:24;2.40;;;0.80;;
146;SDS011;45999;48.808;9.182;2023-04-01T02:09:55;3.30;;;0.70;;
146;SDS011;45999;48.808;9.182;2023-04-01T02:12:21;1.43;;;0.70;;
146;SDS011;45999;48.808;9.182;2023-04-01T02:14:54;2.00;;;0.70;;
146;SDS011;45999;48.808;9.182;2023-04-01T02:17:27;3.83;;;0.73;;
146;SDS011;45999;48.808;9.182;2023-04-01T02:19:57;1.27;;;0.70;;
146;SDS011;45999;48.808;9.182;2023-04-01T02:22:26;2.40;;;0.60;;
146;SDS011;45999;48.808;9.182;2023-04-01T02:25:00;1.43;;;1.03;;
146;SDS011;45999;48.808;9.182;2023-04-01T02:27:30;3.10;;;1.03;;
146;SDS011;45999;48.808;9.182;2023-04-01T02:29:57;1.03;;;0.53;;
146;SDS011;45999;48.808;9.182;2023-04-01T02:32:24;1.40;;;0.60;;
146;SDS011;45999;48.808;9.182;2023-04-01T02:34:53;2.93;;;0.77;;
146;SDS011;45999;48.808;9.182;2023-04-01T02:37:20;1.20;;;0.47;;
146;SDS011;45999;48.808;9.182;2023-04-01T02:39:46;0.33;;;0.33;;
146;SDS011;45999;48.808;9.182;2023-04-01T02:42:13;1.80;;;0.70;;
146;SDS011;45999;48.808;9.182;2023-04-01T02:44:40;1.07;;;0.50;;
146;SDS011;45999;48.808;9.182;2023-04-01T02:47:06;0.73;;;0.43;;
146;SDS011;45999;48.808;9.182;2023-04-01T02:49:33;2.40;;;0.70;;
146;SDS011;45999;48.808;9.182;2023-04-01T02:51:59;2.77;;;0.60;;
146;SDS011;45999;48.808;9.182;2023-04-01T02:54:26;0.70;;;0.40;;
146;SDS011;45999;48.808;9.182;2023-04-01T02:56:52;1.33;;;0.50;;
146;SDS011;45999;48.808;9.182;2023-04-01T02:59:18;0.50;;;0.40;;
146;SDS011;45999;48.808;9.182;2023-04-01T03:01:45;0.50;;;0.40;;
146;SDS011;45999;48.808;9.182;2023-04-01T03:04:11;0.40;;;0.40;;
146;SDS011;45999;48.808;9.182;2023-04-01T03:06:37;0.73;;;0.30;;
146;SDS011;45999;48.808;9.182;2023-04-01T03:09:04;0.53;;;0.30;;
146;SDS011;45999;48.808;9.182;2023-04-01T03:11:30;0.37;;;0.30;;
146;SDS011;45999;48.808;9.182;2023-04-01T03:13:57;1.67;;;0.53;;
146;SDS011;45999;48.808;9.182;2023-04-01T03:16:23;0.50;;;0.30;;
146;SDS011;45999;48.808;9.182;2023-04-01T03:18:49;0.93;;;0.30;;
146;SDS011;45999;48.808;9.182;2023-04-01T03:21:21;0.77;;;0.57;;
146;SDS011;45999;48.808;9.182;2023-04-01T03:23:49;1.20;;;0.40;;
146;SDS011;45999;48.808;9.182;2023-04-01T03:26:15;1.33;;;0.20;;
146;SDS011;45999;48.808;9.182;2023-04-01T03:28:42;1.53;;;0.50;;
146;SDS011;45999;48.808;9.182;2023-04-01T03:31:08;0.60;;;0.40;;
146;SDS011;45999;48.808;9.182;2023-04-01T03:33:35;0.80;;;0.40;;
146;SDS011;45999;48.808;9.182;2023-04-01T03:36:02;0.50;;;0.40;;
146;SDS011;45999;48.808;9.182;2023-04-01T03:38:31;0.40;;;0.40;;
146;SDS011;45999;48.808;9.182;2023-04-01T03:40:58;0.43;;;0.30;;
146;SDS011;45999;48.808;9.182;2023-04-01T03:43:25;1.40;;;0.47;;
146;SDS011;45999;48.808;9.182;2023-04-01T03:45:52;0.53;;;0.40;;
146;SDS011;45999;48.808;9.182;2023-04-01T03:48:19;1.40;;;0.40;;
146;SDS011;45999;48.808;9.182;2023-04-01T03:50:46;0.73;;;0.40;;
146;SDS011;45999;48.808;9.182;2023-04-01T03:53:12;0.30;;;0.30;;
146;SDS011;45999;48.808;9.182;2023-04-01T03:55:40;1.40;;;0.70;;
146;SDS011;45999;48.808;9.182;2023-04-01T03:58:07;0.37;;;0.30;;
146;SDS011;45999;48.808;9.182;2023-04-01T04:00:34;0.90;;;0.40;;
146;SDS011;45999;48.808;9.182;2023-04-01T04:03:00;0.80;;;0.50;;
146;SDS011;45999;48.808;9.182;2023-04-01T04:05:27;2.77;;;0.40;;
146;SDS011;45999;48.808;9.182;2023-04-01T04:07:54;1.37;;;0.53;;
146;SDS011;45999;48.808;9.182;2023-04-01T04:10:20;1.23;;;0.40;;
146;SDS011;45999;48.808;9.182;2023-04-01T04:12:48;0.93;;;0.40;;
146;SDS011;45999;48.808;9.182;2023-04-01T04:15:15;1.13;;;0.50;;
146;SDS011;45999;48.808;9.182;2023-04-01T04:17:41;0.83;;;0.40;;
146;SDS011;45999;48.808;9.182;2023-04-01T04:20:08;0.83;;;0.40;;
146;SDS011;45999;48.808;9.182;2023-04-01T04:22:35;1.87;;;0.50;;
146;SDS011;45999;48.808;9.182;2023-04-01T04:25:01;1.07;;;0.43;;
146;SDS011;45999;48.808;9.182;2023-04-01T04:27:28;1.40;;;0.40;;
146;SDS011;45999;48.808;9.182;2023-04-01T04:29:54;0.67;;;0.43;;
146;SDS011;45999;48.808;9.182;2023-04-01T04:32:21;0.63;;;0.50;;
146;SDS011;45999;48.808;9.182;2023-04-01T04:34:47;1.00;;;0.50;;
146;SDS011;45999;48.808;9.182;2023-04-01T04:37:14;2.33;;;0.50;;
146;SDS011;45999;48.808;9.182;2023-04-01T04:39:40;1.50;;;0.53;;
146;SDS011;45999;48.808;9.182;2023-04-01T04:42:06;0.97;;;0.43;;
146;SDS011;45999;48.808;9.182;2023-04-01T04:44:33;0.40;;;0.40;;
146;SDS011;45999;48.808;9.182;2023-04-01T04:46:59;2.23;;;0.67;;
146;SDS011;45999;48.808;9.182;2023-04-01T04:49:26;0.70;;;0.53;;
146;SDS011;45999;48.808;9.182;2023-04-01T04:51:52;1.23;;;0.30;;
146;SDS011;45999;48.808;9.182;2023-04-01T04:54:18;1.40;;;0.50;;
146;SDS011;45999;48.808;9.182;2023-04-01T04:56:45;1.60;;;0.50;;
146;SDS011;45999;48.808;9.182;2023-04-01T04:59:11;0.87;;;0.50;;
146;SDS011;45999;48.808;9.182;2023-04-01T05:01:38;1.67;;;0.40;;
146;SDS011;45999;48.808;9.182;2023-04-01T05:04:04;1.87;;;0.50;;
146;SDS011;45999;48.808;9.182;2023-04-01T05:06:30;1.40;;;0.30;;
146;SDS011;45999;48.808;9.182;2023-04-01T05:08:57;1.10;;;0.40;;
146;SDS011;45999;48.808;9.182;2023-04-01T05:11:23;1.40;;;0.40;;
146;SDS011;45999;48.808;9.182;2023-04-01T05:13:51;0.97;;;0.40;;
146;SDS011;45999;48.808;9.182;2023-04-01T05:16:18;0.57;;;0.40;;
146;SDS011;45999;48.808;9.182;2023-04-01T05:18:46;0.37;;;0.30;;
146;SDS011;45999;48.808;9.182;2023-04-01T05:21:13;1.50;;;0.50;;
146;SDS011;45999;48.808;9.182;2023-04-01T05:23:41;0.60;;;0.40;;
146;SDS011;45999;48.808;9.182;2023-04-01T05:26:09;3.07;;;0.50;;
146;SDS011;45999;48.808;9.182;2023-04-01T05:28:37;1.10;;;0.60;;
146;SDS011;45999;48.808;9.182;2023-04-01T05:31:05;2.73;;;0.73;;
146;SDS011;45999;48.808;9.182;2023-04-01T05:33:32;1.60;;;0.53;;
146;SDS011;45999;48.808;9.182;2023-04-01T05:38:34;1.73;;;0.60;;
146;SDS011;45999;48.808;9.182;2023-04-01T05:41:01;1.60;;;0.60;;
146;SDS011;45999;48.808;9.182;2023-04-01T05:43:28;1.70;;;0.67;;
146;SDS011;45999;48.808;9.182;2023-04-01T05:45:56;2.67;;;0.60;;
146;SDS011;45999;48.808;9.182;2023-04-01T05:48:23;2.40;;;0.50;;
146;SDS011;45999;48.808;9.182;2023-04-01T05:50:49;1.17;;;0.67;;
146;SDS011;45999;48.808;9.182;2023-04-01T05:53:15;2.00;;;0.60;;
146;SDS011;45999;48.808;9.182;2023-04-01T05:55:42;1.80;;;0.60;;
146;SDS011;45999;48.808;9.182;2023-04-01T05:58:08;3.83;;;0.77;;
146;SDS011;45999;48.808;9.182;2023-04-01T06:00:34;0.93;;;0.70;;
146;SDS011;45999;48.808;9.182;2023-04-01T06:03:01;1.70;;;0.50;;
146;SDS011;45999;48.808;9.182;2023-04-01T06:05:28;3.23;;;0.83;;
146;SDS011;45999;48.808;9.182;2023-04-01T06:08:01;2.67;;;0.40;;
146;SDS011;45999;48.808;9.182;2023-04-01T06:10:38;0.47;;;0.43;;
146;SDS011;45999;48.808;9.182;2023-04-01T06:13:19;1.30;;;0.60;;
146;SDS011;45999;48.808;9.182;2023-04-01T06:26:07;3.20;;;0.80;;
146;SDS011;45999;48.808;9.182;2023-04-01T06:28:57;2.30;;;0.67;;
146;SDS011;45999;48.808;9.182;2023-04-01T06:37:28;1.93;;;0.60;;
146;SDS011;45999;48.808;9.182;2023-04-01T06:54:11;1.20;;;0.57;;
146;SDS011;45999;48.808;9.182;2023-04-01T06:56:44;1.30;;;0.50;;
146;SDS011;45999;48.808;9.182;2023-04-01T06:59:19;1.27;;;0.50;;
146;SDS011;45999;48.808;9.182;2023-04-01T07:01:58;0.77;;;0.40;;
146;SDS011;45999;48.808;9.182;2023-04-01T07:04:32;0.73;;;0.40;;
146;SDS011;45999;48.808;9.182;2023-04-01T07:07:03;1.00;;;0.50;;
146;SDS011;45999;48.808;9.182;2023-04-01T07:09:32;0.63;;;0.60;;
146;SDS011;45999;48.808;9.182;2023-04-01T07:12:06;0.93;;;0.57;;
146;SDS011;45999;48.808;9.182;2023-04-01T07:14:41;2.43;;;0.60;;
146;SDS011;45999;48.808;9.182;2023-04-01T07:17:20;1.70;;;0.60;;
146;SDS011;45999;48.808;9.182;2023-04-01T07:19:52;1.63;;;0.50;;
146;SDS011;45999;48.808;9.182;2023-04-01T07:22:32;1.50;;;0.50;;
146;SDS011;45999;48.808;9.182;2023-04-01T07:25:05;1.57;;;0.70;;
146;SDS011;45999;48.808;9.182;2023-04-01T07:27:38;2.07;;;0.53;;
146;SDS011;45999;48.808;9.182;2023-04-01T07:30:15;1.63;;;0.70;;
146;SDS011;45999;48.808;9.182;2023-04-01T07:35:24;1.70;;;0.60;;
146;SDS011;45999;48.808;9.182;2023-04-01T07:38:04;0.93;;;0.60;;
146;SDS011;45999;48.808;9.182;2023-04-01T07:54:21;2.17;;;0.60;;
146;SDS011;45999;48.808;9.182;2023-04-01T07:57:01;1.10;;;0.60;;
146;SDS011;45999;48.808;9.182;2023-04-01T08:08:18;1.83;;;0.60;;
146;SDS011;45999;48.808;9.182;2023-04-01T08:10:55;1.97;;;0.53;;
146;SDS011;45999;48.808;9.182;2023-04-01T08:13:33;2.20;;;0.73;;
146;SDS011;45999;48.808;9.182;2023-04-01T08:16:27;1.20;;;0.40;;
146;SDS011;45999;48.808;9.182;2023-04-01T08:19:24;1.83;;;0.47;;
146;SDS011;45999;48.808;9.182;2023-04-01T08:22:37;1.43;;;0.50;;
146;SDS011;45999;48.808;9.182;2023-04-01T08:25:10;1.27;;;0.80;;
146;SDS011;45999;48.808;9.182;2023-04-01T08:27:45;2.30;;;0.70;;
146;SDS011;45999;48.808;9.182;2023-04-01T08:30:16;1.03;;;0.40;;
146;SDS011;45999;48.808;9.182;2023-04-01T08:32:54;1.90;;;0.63;;
146;SDS011;45999;48.808;9.182;2023-04-01T08:35:26;2.27;;;0.60;;
146;SDS011;45999;48.808;9.182;2023-04-01T08:37:58;1.03;;;0.70;;
146;SDS011;45999;48.808;9.182;2023-04-01T08:51:31;2.00;;;0.50;;
146;SDS011;45999;48.808;9.182;2023-04-01T08:54:06;3.50;;;0.80;;
146;SDS011;45999;48.808;9.182;2023-04-01T08:56:59;0.60;;;0.50;;
146;SDS011;45999;48.808;9.182;2023-04-01T08:59:48;0.57;;;0.47;;
146;SDS011;45999;48.808;9.182;2023-04-01T09:16:28;1.33;;;0.50;;
146;SDS011;45999;48.808;9.182;2023-04-01T09:19:24;1.90;;;0.60;;
146;SDS011;45999;48.808;9.182;2023-04-01T09:27:27;1.87;;;0.50;;
146;SDS011;45999;48.808;9.182;2023-04-01T09:33:46;0.83;;;0.40;;
146;SDS011;45999;48.808;9.182;2023-04-01T09:44:35;0.83;;;0.40;;
146;SDS011;45999;48.808;9.182;2023-04-01T09:52:25;0.57;;;0.40;;
146;SDS011;45999;48.808;9.182;2023-04-01T10:00:19;0.60;;;0.50;;
146;SDS011;45999;48.808;9.182;2023-04-01T10:05:50;0.30;;;0.30;;
146;SDS011;45999;48.808;9.182;2023-04-01T10:14:47;0.40;;;0.30;;
146;SDS011;45999;48.808;9.182;2023-04-01T10:17:45;0.40;;;0.30;;
146;SDS011;45999;48.808;9.182;2023-04-01T10:20:48;0.30;;;0.30;;
146;SDS011;45999;48.808;9.182;2023-04-01T10:23:33;0.20;;;0.20;;
146;SDS011;45999;48.808;9.182;2023-04-01T10:29:10;0.40;;;0.30;;
146;SDS011;45999;48.808;9.182;2023-04-01T10:37:32;1.00;;;0.20;;
146;SDS011;45999;48.808;9.182;2023-04-01T10:40:17;0.30;;;0.30;;
146;SDS011;45999;48.808;9.182;2023-04-01T10:54:40;0.30;;;0.30;;
146;SDS011;45999;48.808;9.182;2023-04-01T10:57:39;0.20;;;0.20;;
146;SDS011;45999;48.808;9.182;2023-04-01T11:09:44;0.30;;;0.30;;
146;SDS011;45999;48.808;9.182;2023-04-01T11:15:41;0.30;;;0.20;;
146;SDS011;45999;48.808;9.182;2023-04-01T11:18:33;0.63;;;0.20;;
146;SDS011;45999;48.808;9.182;2023-04-01T11:35:31;1.00;;;0.23;;
146;SDS011;45999;48.808;9.182;2023-04-01T11:46:17;0.20;;;0.20;;
146;SDS011;45999;48.808;9.182;2023-04-01T11:49:02;0.37;;;0.20;;
146;SDS011;45999;48.808;9.182;2023-04-01T11:54:41;0.43;;;0.30;;
146;SDS011;45999;48.808;9.182;2023-04-01T12:00:22;0.23;;;0.23;;
146;SDS011;45999;48.808;9.182;2023-04-01T12:22:16;0.25;;;0.25;;
146;SDS011;45999;48.808;9.182;2023-04-01T12:25:14;0.33;;;0.33;;
146;SDS011;45999;48.808;9.182;2023-04-01T12:27:54;0.53;;;0.30;;
146;SDS011;45999;48.808;9.182;2023-04-01T12:45:35;0.20;;;0.20;;
146;SDS011;45999;48.808;9.182;2023-04-01T12:54:02;0.20;;;0.20;;
146;SDS011;45999;48.808;9.182;2023-04-01T12:56:57;0.33;;;0.20;;
146;SDS011;45999;48.808;9.182;2023-04-01T13:00:03;0.20;;;0.20;;
146;SDS011;45999;48.808;9.182;2023-04-01T13:02:53;0.30;;;0.30;;
146;SDS011;45999;48.808;9.182;2023-04-01T13:11:20;0.30;;;0.30;;
146;SDS011;45999;48.808;9.182;2023-04-01T13:22:35;0.20;;;0.20;;
146;SDS011;45999;48.808;9.182;2023-04-01T13:36:34;0.60;;;0.60;;
146;SDS011;45999;48.808;9.182;2023-04-01T13:54:00;0.57;;;0.23;;
146;SDS011;45999;48.808;9.182;2023-04-01T14:11:07;1.13;;;0.37;;
146;SDS011;45999;48.808;9.182;2023-04-01T14:13:44;0.20;;;0.20;;
146;SDS011;45999;48.808;9.182;2023-04-01T14:16:33;0.20;;;0.20;;
146;SDS011;45999;48.808;9.182;2023-04-01T14:50:24;0.30;;;0.30;;
146;SDS011;45999;48.808;9.182;2023-04-01T14:58:16;0.20;;;0.20;;
146;SDS011;45999;48.808;9.182;2023-04-01T15:05:55;0.30;;;0.30;;
146;SDS011;45999;48.808;9.182;2023-04-01T15:08:41;0.20;;;0.20;;
146;SDS011;45999;48.808;9.182;2023-04-01T15:11:21;0.30;;;0.30;;
146;SDS011;45999;48.808;9.182;2023-04-01T15:28:24;0.30;;;0.30;;
146;SDS011;45999;48.808;9.182;2023-04-01T15:31:04;0.20;;;0.20;;
146;SDS011;45999;48.808;9.182;2023-04-01T15:36:30;0.20;;;0.20;;
146;SDS011;45999;48.808;9.182;2023-04-01T15:41:36;0.20;;;0.20;;
146;SDS011;45999;48.808;9.182;2023-04-01T15:44:25;0.20;;;0.20;;
146;SDS011;45999;48.808;9.182;2023-04-01T15:47:34;0.27;;;0.27;;
146;SDS011;45999;48.808;9.182;2023-04-01T15:53:32;0.40;;;0.40;;
146;SDS011;45999;48.808;9.182;2023-04-01T15:56:46;0.37;;;0.37;;
146;SDS011;45999;48.808;9.182;2023-04-01T16:05:08;0.20;;;0.20;;
146;SDS011;45999;48.808;9.182;2023-04-01T16:10:34;0.30;;;0.30;;
146;SDS011;45999;48.808;9.182;2023-04-01T16:13:21;0.63;;;0.40;;
146;SDS011;45999;48.808;9.182;2023-04-01T16:21:43;0.30;;;0.30;;
146;SDS011;45999;48.808;9.182;2023-04-01T16:24:15;0.40;;;0.40;;
146;SDS011;45999;48.808;9.182;2023-04-01T16:27:02;0.20;;;0.20;;
146;SDS011;45999;48.808;9.182;2023-04-01T16:29:38;0.30;;;0.30;;
146;SDS011;45999;48.808;9.182;2023-04-01T16:32:15;0.33;;;0.30;;
146;SDS011;45999;48.808;9.182;2023-04-01T16:34:49;0.77;;;0.60;;
146;SDS011;45999;48.808;9.182;2023-04-01T16:37:32;0.53;;;0.33;;
146;SDS011;45999;48.808;9.182;2023-04-01T16:42:51;0.37;;;0.30;;
146;SDS011;45999;48.808;9.182;2023-04-01T16:48:35;0.30;;;0.30;;
146;SDS011;45999;48.808;9.182;2023-04-01T16:53:17;0.40;;;0.40;;
146;SDS011;45999;48.808;9.182;2023-04-01T17:01:04;0.73;;;0.37;;
146;SDS011;45999;48.808;9.182;2023-04-01T17:03:36;0.30;;;0.30;;
146;SDS011;45999;48.808;9.182;2023-04-01T17:14:31;0.30;;;0.30;;
146;SDS011;45999;48.808;9.182;2023-04-01T17:23:18;0.90;;;0.50;;
146;SDS011;45999;48.808;9.182;2023-04-01T17:25:58;0.40;;;0.40;;
146;SDS011;45999;48.808;9.182;2023-04-01T17:28:32;0.40;;;0.40;;
146;SDS011;45999;48.808;9.182;2023-04-01T17:33:53;0.93;;;0.40;;
146;SDS011;45999;48.808;9.182;2023-04-01T17:50:37;1.17;;;0.50;;
146;SDS011;45999;48.808;9.182;2023-04-01T17:55:56;1.03;;;0.50;;
146;SDS011;45999;48.808;9.182;2023-04-01T17:58:46;0.40;;;0.40;;
146;SDS011;45999;48.808;9.182;2023-04-01T18:04:28;1.00;;;0.83;;
146;SDS011;45999;48.808;9.182;2023-04-01T18:15:41;1.53;;;0.80;;
146;SDS011;45999;48.808;9.182;2023-04-01T18:26:35;1.10;;;0.70;;
146;SDS011;45999;48.808;9.182;2023-04-01T18:29:31;1.60;;;0.80;;
146;SDS011;45999;48.808;9.182;2023-04-01T18:37:43;1.87;;;0.80;;
146;SDS011;45999;48.808;9.182;2023-04-01T18:43:02;1.80;;;0.63;;
146;SDS011;45999;48.808;9.182;2023-04-01T18:45:37;0.93;;;0.73;;
146;SDS011;45999;48.808;9.182;2023-04-01T18:51:24;1.77;;;0.70;;
146;SDS011;45999;48.808;9.182;2023-04-01T18:56:44;1.40;;;0.50;;
146;SDS011;45999;48.808;9.182;2023-04-01T19:02:19;1.23;;;0.70;;
146;SDS011;45999;48.808;9.182;2023-04-01T19:07:44;1.47;;;0.60;;
146;SDS011;45999;48.808;9.182;2023-04-01T19:15:57;0.60;;;0.60;;
146;SDS011;45999;48.808;9.182;2023-04-01T19:21:16;1.30;;;0.63;;
146;SDS011;45999;48.808;9.182;2023-04-01T19:23:53;1.67;;;0.90;;
146;SDS011;45999;48.808;9.182;2023-04-01T19:26:29;2.27;;;0.67;;
146;SDS011;45999;48.808;9.182;2023-04-01T19:29:23;0.80;;;0.70;;
146;SDS011;45999;48.808;9.182;2023-04-01T19:37:26;0.73;;;0.60;;
146;SDS011;45999;48.808;9.182;2023-04-01T19:56:39;1.20;;;0.50;;
146;SDS011;45999;48.808;9.182;2023-04-01T20:04:40;2.33;;;0.60;;
146;SDS011;45999;48.808;9.182;2023-04-01T20:17:53;0.40;;;0.40;;
146;SDS011;45999;48.808;9.182;2023-04-01T20:20:26;0.60;;;0.50;;
146;SDS011;45999;48.808;9.182;2023-04-01T20:22:59;1.03;;;0.60;;
146;SDS011;45999;48.808;9.182;2023-04-01T20:25:32;2.10;;;0.60;;
146;SDS011;45999;48.808;9.182;2023-04-01T20:28:13;1.13;;;0.50;;
146;SDS011;45999;48.808;9.182;2023-04-01T20:39:13;0.43;;;0.40;;
146;SDS011;45999;48.808;9.182;2023-04-01T20:47:50;0.80;;;0.50;;
146;SDS011;45999;48.808;9.182;2023-04-01T20:53:16;1.70;;;0.80;;
146;SDS011;45999;48.808;9.182;2023-04-01T20:55:55;0.80;;;0.70;;
146;SDS011;45999;48.808;9.182;2023-04-01T21:01:44;1.00;;;0.70;;
146;SDS011;45999;48.808;9.182;2023-04-01T21:04:43;0.40;;;0.40;;
146;SDS011;45999;48.808;9.182;2023-04-01T21:07:33;0.53;;;0.50;;
146;SDS011;45999;48.808;9.182;2023-04-01T21:10:11;0.50;;;0.50;;
146;SDS011;45999;48.808;9.182;2023-04-01T21:21:21;0.80;;;0.57;;
146;SDS011;45999;48.808;9.182;2023-04-01T21:24:23;0.60;;;0.50;;
146;SDS011;45999;48.808;9.182;2023-04-01T21:52:34;1.10;;;0.80;;
146;SDS011;45999;48.808;9.182;2023-04-01T21:58:12;0.80;;;0.77;;
146;SDS011;45999;48.808;9.182;2023-04-01T22:04:20;0.93;;;0.60;;
146;SDS011;45999;48.808;9.182;2023-04-01T22:21:39;1.30;;;0.70;;
146;SDS011;45999;48.808;9.182;2023-04-01T22:29:58;1.80;;;0.60;;
146;SDS011;45999;48.808;9.182;2023-04-01T22:35:26;1.50;;;0.53;;
146;SDS011;45999;48.808;9.182;2023-04-01T22:48:52;1.33;;;0.60;;
146;SDS011;45999;48.808;9.182;2023-04-01T22:52:08;0.57;;;0.53;;
146;SDS011;45999;48.808;9.182;2023-04-01T22:54:23;0.60;;;0.50;;
146;SDS011;45999;48.808;9.182;2023-04-01T22:56:57;0.60;;;0.60;;
146;SDS011;45999;48.808;9.182;2023-04-01T22:59:43;1.37;;;0.60;;
146;SDS011;45999;48.808;9.182;2023-04-01T23:02:16;1.77;;;0.50;;
146;SDS011;45999;48.808;9.182;2023-04-01T23:04:48;0.47;;;0.40;;
146;SDS011;45999;48.808;9.182;2023-04-01T23:10:02;0.50;;;0.50;;
146;SDS011;45999;48.808;9.182;2023-04-01T23:12:38;0.40;;;0.40;;
146;SDS011;45999;48.808;9.182;2023-04-01T23:15:10;1.23;;;0.50;;
146;SDS011;45999;48.808;9.182;2023-04-01T23:28:47;1.57;;;0.50;;
146;SDS011;45999;48.808;9.182;2023-04-01T23:36:47;0.83;;;0.40;;
146;SDS011;45999;48.808;9.182;2023-04-01T23:41:54;0.93;;;0.50;;
146;SDS011;45999;48.808;9.182;2023-04-01T23:44:25;0.67;;;0.33;;
146;SDS011;45999;48.808;9.182;2023-04-01T23:46:54;0.40;;;0.40;;
146;SDS011;45999;48.808;9.182;2023-04-01T23:49:22;0.50;;;0.50;;
146;SDS011;45999;48.808;9.182;2023-04-01T23:52:10;0.40;;;0.40;;
146;SDS011;45999;48.808;9.182;2023-04-01T23:54:55;0.50;;;0.50;;
146;SDS011;45999;48.808;9.182;2023-04-01T23:57:32;1.47;;;0.40;;
